createdAt,value
2019-03-08T00:01:09.179Z,99.90
2019-03-08T00:05:07.811Z,99.90
2019-03-08T00:09:09.029Z,99.90
2019-03-08T00:13:10.492Z,99.90
2019-03-08T00:17:11.337Z,99.90
2019-03-08T00:21:09.946Z,99.90
2019-03-08T00:25:11.433Z,99.90
2019-03-08T00:29:10.005Z,99.90
2019-03-08T00:33:08.891Z,99.90
2019-03-08T00:37:10.381Z,99.90
2019-03-08T00:41:09.272Z,99.90
2019-03-08T00:45:19.778Z,99.90
2019-03-08T00:49:18.420Z,99.90
2019-03-08T00:53:17.077Z,99.90
2019-03-08T00:57:15.656Z,99.90
2019-03-08T01:01:14.360Z,99.90
2019-03-08T01:05:14.085Z,99.90
2019-03-08T01:09:12.731Z,99.90
2019-03-08T01:13:11.358Z,99.90
2019-03-08T01:17:10.009Z,99.90
2019-03-08T01:21:08.661Z,99.90
2019-03-08T01:25:09.065Z,99.90
2019-03-08T01:29:08.098Z,99.90
2019-03-08T01:33:09.883Z,99.90
2019-03-08T01:37:08.469Z,99.90
2019-03-08T01:41:07.380Z,99.90
2019-03-08T01:45:07.993Z,99.90
2019-03-08T01:49:08.191Z,99.90
2019-03-08T01:53:09.405Z,99.90
2019-03-08T01:57:07.969Z,99.90
2019-03-08T02:01:11.780Z,99.90
2019-03-08T02:05:10.475Z,99.90
2019-03-08T02:09:09.080Z,99.90
2019-03-08T02:13:07.972Z,99.90
2019-03-08T02:17:06.950Z,99.90
2019-03-08T02:21:06.971Z,99.90
2019-03-08T02:25:06.286Z,99.90
2019-03-08T02:29:17.652Z,99.90
2019-03-08T02:33:16.245Z,99.90
2019-03-08T02:37:14.809Z,99.90
2019-03-08T02:41:13.468Z,99.90
2019-03-08T02:45:15.026Z,99.90
2019-03-08T02:49:13.729Z,99.90
2019-03-08T02:53:13.570Z,99.90
2019-03-08T02:57:12.084Z,99.90
2019-03-08T03:01:10.762Z,99.90
2019-03-08T03:05:09.771Z,99.90
2019-03-08T03:09:08.794Z,99.90
2019-03-08T03:13:07.643Z,99.90
2019-03-08T03:17:06.302Z,99.90
2019-03-08T03:21:04.962Z,99.90
2019-03-08T03:25:08.364Z,99.90
2019-03-08T03:29:06.935Z,99.90
2019-03-08T03:33:05.590Z,99.90
2019-03-08T03:37:04.180Z,99.90
2019-03-08T03:41:02.733Z,99.90
2019-03-08T03:45:01.839Z,99.90
2019-03-08T03:49:00.435Z,99.90
2019-03-08T03:52:59.194Z,99.90
2019-03-08T03:57:02.312Z,99.90
2019-03-08T04:01:02.842Z,99.90
2019-03-08T04:05:03.000Z,99.90
2019-03-08T04:09:01.996Z,99.90
2019-03-08T04:13:01.040Z,99.90
2019-03-08T04:16:59.821Z,99.90
2019-03-08T04:20:58.382Z,99.90
2019-03-08T04:24:56.971Z,99.90
2019-03-08T04:28:55.637Z,99.90
2019-03-08T04:32:56.822Z,99.90
2019-03-08T04:36:57.210Z,99.90
2019-03-08T04:40:55.783Z,99.90
2019-03-08T04:44:54.711Z,99.90
2019-03-08T04:48:53.304Z,99.90
2019-03-08T04:52:53.065Z,99.90
2019-03-08T04:56:58.659Z,99.90
2019-03-08T05:00:57.375Z,99.90
2019-03-08T05:04:55.912Z,99.90
2019-03-08T05:08:54.662Z,99.90
2019-03-08T05:12:53.207Z,99.90
2019-03-08T05:16:51.785Z,99.90
2019-03-08T05:20:50.511Z,99.90
2019-03-08T05:24:49.095Z,99.90
2019-03-08T05:28:47.997Z,99.90
2019-03-08T05:32:46.593Z,99.90
2019-03-08T05:36:45.154Z,99.90
2019-03-08T05:40:43.768Z,99.90
2019-03-08T05:44:42.318Z,99.90
2019-03-08T05:48:40.910Z,99.90
2019-03-08T05:52:39.502Z,99.90
2019-03-08T05:56:38.154Z,99.90
2019-03-08T06:00:36.853Z,99.90
2019-03-08T06:04:35.432Z,99.90
2019-03-08T06:08:33.990Z,99.90
2019-03-08T06:12:33.005Z,99.90
2019-03-08T06:16:31.584Z,99.90
2019-03-08T06:20:30.280Z,99.90
2019-03-08T06:24:29.362Z,99.90
2019-03-08T06:28:27.945Z,99.90
2019-03-08T06:32:26.515Z,99.90
2019-03-08T06:36:25.617Z,99.90
2019-03-08T06:40:24.255Z,99.90
2019-03-08T06:44:22.867Z,99.90
2019-03-08T06:48:21.425Z,99.90
2019-03-08T06:52:20.019Z,99.90
2019-03-08T06:56:28.116Z,99.90
2019-03-08T07:00:35.345Z,99.90
2019-03-08T07:04:33.954Z,99.90
2019-03-08T07:08:32.643Z,99.90
2019-03-08T07:12:31.189Z,99.90
2019-03-08T07:16:30.077Z,99.90
2019-03-08T07:20:30.311Z,99.90
2019-03-08T07:24:34.115Z,99.90
2019-03-08T07:28:48.899Z,99.90
2019-03-08T07:32:54.110Z,99.90
2019-03-08T07:37:13.780Z,99.90
2019-03-08T07:41:30.208Z,99.90
2019-03-08T07:45:46.607Z,99.90
2019-03-08T07:50:05.151Z,99.90
2019-03-08T07:54:08.715Z,99.90
2019-03-08T07:58:11.646Z,99.90
2019-03-08T08:02:17.330Z,99.90
2019-03-08T08:06:20.379Z,99.90
2019-03-08T08:10:23.825Z,99.90
2019-03-08T08:14:26.935Z,99.90
2019-03-08T08:18:27.514Z,99.90
2019-03-08T08:22:44.031Z,99.90
2019-03-08T08:26:46.885Z,99.90
2019-03-08T08:30:59.432Z,99.90
2019-03-08T08:35:30.010Z,99.90
2019-03-08T08:39:35.274Z,99.90
2019-03-08T08:43:51.608Z,99.90
2019-03-08T08:48:04.083Z,99.90
2019-03-08T08:52:15.979Z,99.90
2019-03-08T08:56:19.351Z,99.90
2019-03-08T09:00:23.047Z,99.90
2019-03-08T09:04:28.940Z,99.90
2019-03-08T09:08:32.276Z,99.90
2019-03-08T09:12:52.028Z,99.90
2019-03-08T09:16:58.689Z,99.90
2019-03-08T09:21:15.218Z,99.90
2019-03-08T09:25:25.313Z,99.90
2019-03-08T09:29:41.523Z,99.90
2019-03-08T09:33:47.985Z,99.90
2019-03-08T09:37:48.208Z,99.90
2019-03-08T09:42:00.448Z,99.90
2019-03-08T09:46:00.670Z,99.90
2019-03-08T09:50:17.122Z,99.90
2019-03-08T09:54:18.287Z,99.90
2019-03-08T09:58:41.319Z,99.90
2019-03-08T10:02:44.484Z,99.90
2019-03-08T10:06:56.894Z,99.90
2019-03-08T10:11:15.681Z,99.90
2019-03-08T10:15:33.519Z,99.90
2019-03-08T10:19:36.529Z,99.90
2019-03-08T10:23:53.543Z,99.90
2019-03-08T10:28:12.065Z,99.90
2019-03-08T10:32:22.411Z,99.90
2019-03-08T10:36:31.894Z,99.90
2019-03-08T10:40:35.784Z,99.90
2019-03-08T10:44:39.383Z,99.90
2019-03-08T10:48:39.694Z,99.90
2019-03-08T10:52:40.571Z,99.90
2019-03-08T10:56:55.571Z,99.90
2019-03-08T11:01:14.211Z,99.90
2019-03-08T11:05:18.983Z,99.90
2019-03-08T11:09:26.495Z,99.90
2019-03-08T11:13:43.200Z,99.90
2019-03-08T11:17:51.257Z,99.90
2019-03-08T11:22:00.425Z,99.90
2019-03-08T11:26:06.392Z,99.90
2019-03-08T11:30:15.583Z,99.90
2019-03-08T11:34:18.654Z,99.90
2019-03-08T11:38:22.725Z,99.90
2019-03-08T11:42:26.593Z,99.90
2019-03-08T11:46:27.235Z,99.90
2019-03-08T11:50:27.847Z,99.90
2019-03-08T11:54:40.356Z,99.90
2019-03-08T11:58:51.458Z,99.90
2019-03-08T12:02:57.717Z,99.90
2019-03-08T12:07:01.080Z,99.90
2019-03-08T12:11:32.737Z,99.90
2019-03-08T12:15:51.230Z,99.90
2019-03-08T12:20:03.388Z,99.90
2019-03-08T12:24:06.599Z,99.90
2019-03-08T12:28:10.222Z,99.90
2019-03-08T12:32:16.949Z,99.90
2019-03-08T12:36:18.946Z,99.90
2019-03-08T12:40:22.301Z,99.90
2019-03-08T12:44:22.958Z,99.90
2019-03-08T12:48:39.253Z,99.90
2019-03-08T12:52:56.593Z,99.90
2019-03-08T12:56:56.797Z,99.90
2019-03-08T13:00:57.245Z,99.90
2019-03-08T13:05:03.845Z,99.90
2019-03-08T13:09:10.057Z,99.90
2019-03-08T13:13:08.956Z,99.90
2019-03-08T13:17:07.558Z,99.90
2019-03-08T13:21:06.762Z,96.00
2019-03-08T13:25:08.142Z,90.60
2019-03-08T13:29:07.133Z,92.20
2019-03-08T13:33:05.820Z,97.40
2019-03-08T13:37:06.120Z,99.90
2019-03-08T13:41:05.019Z,95.80
2019-03-08T13:45:05.436Z,97.90
2019-03-08T13:49:04.004Z,96.20
2019-03-08T13:53:07.283Z,96.50
2019-03-08T13:57:05.867Z,94.70
2019-03-08T14:01:05.060Z,93.20
2019-03-08T14:05:04.631Z,92.10
2019-03-08T14:09:04.795Z,91.70
2019-03-08T14:13:03.502Z,93.80
2019-03-08T14:17:02.182Z,93.80
2019-03-08T14:21:02.298Z,98.80
2019-03-08T14:25:00.964Z,93.10
2019-03-08T14:28:59.567Z,91.80
2019-03-08T14:33:01.566Z,89.60
2019-03-08T14:36:58.832Z,89.80
2019-03-08T14:40:59.139Z,84.20
2019-03-08T14:45:03.597Z,88.70
2019-03-08T14:49:02.176Z,92.50
2019-03-08T14:53:00.998Z,90.50
2019-03-08T14:56:59.990Z,93.00
2019-03-08T15:01:02.103Z,96.10
2019-03-08T15:04:58.830Z,94.60
2019-03-08T15:08:57.821Z,95.10
2019-03-08T15:12:56.904Z,96.40
2019-03-08T15:16:55.674Z,92.00
2019-03-08T15:20:54.773Z,93.50
2019-03-08T15:25:13.977Z,90.70
2019-03-08T15:29:13.641Z,91.30
2019-03-08T15:33:12.674Z,96.70
2019-03-08T15:37:11.280Z,92.60
2019-03-08T15:41:10.079Z,97.70
2019-03-08T15:45:11.374Z,96.30
2019-03-08T15:49:09.943Z,95.40
2019-03-08T15:53:08.689Z,97.10
2019-03-08T15:57:07.364Z,97.50
2019-03-08T16:01:09.082Z,99.90
2019-03-08T16:05:11.195Z,99.90
2019-03-08T16:09:10.026Z,99.90
2019-03-08T16:13:09.187Z,99.50
2019-03-08T16:17:08.185Z,99.70
2019-03-08T16:21:06.985Z,99.50
2019-03-08T16:25:09.214Z,99.90
2019-03-08T16:29:07.659Z,99.90
2019-03-08T16:33:22.608Z,99.90
2019-03-08T16:37:22.646Z,99.90
2019-03-08T16:41:28.204Z,99.90
2019-03-08T16:45:33.696Z,99.90
2019-03-08T16:49:48.083Z,99.90
2019-03-08T16:53:47.481Z,99.90
2019-03-08T16:58:04.240Z,99.90
2019-03-08T17:02:11.177Z,99.90
2019-03-08T17:06:30.634Z,99.90
2019-03-08T17:10:49.216Z,99.90
2019-03-08T17:14:55.420Z,99.90
2019-03-08T17:19:01.317Z,99.90
2019-03-08T17:23:04.137Z,99.90
2019-03-08T17:27:04.697Z,99.90
2019-03-08T17:31:04.945Z,99.90
2019-03-08T17:35:09.047Z,99.90
2019-03-08T17:39:20.109Z,99.90
2019-03-08T17:43:20.663Z,99.90
2019-03-08T17:47:23.723Z,99.90
2019-03-08T17:51:38.687Z,99.90
2019-03-08T17:55:38.870Z,99.90
2019-03-08T17:59:43.775Z,99.90
2019-03-08T18:04:02.247Z,99.90
2019-03-08T18:08:14.335Z,99.90
2019-03-08T18:12:30.641Z,99.90
2019-03-08T18:16:43.534Z,99.90
2019-03-08T18:21:01.825Z,99.90
2019-03-08T18:25:05.337Z,99.90
2019-03-08T18:29:05.580Z,99.90
2019-03-08T18:33:22.313Z,99.90
2019-03-08T18:37:25.513Z,99.90
2019-03-08T18:41:31.921Z,99.90
2019-03-08T18:45:48.094Z,99.90
2019-03-08T18:50:04.779Z,99.90
2019-03-08T18:54:21.683Z,99.90
2019-03-08T18:58:36.892Z,99.90
2019-03-08T19:02:46.911Z,99.90
2019-03-08T19:06:56.227Z,99.90
2019-03-08T19:11:12.968Z,99.90
2019-03-08T19:15:20.521Z,99.90
2019-03-08T19:19:37.595Z,99.90
2019-03-08T19:23:38.162Z,99.90
2019-03-08T19:27:44.487Z,99.90
2019-03-08T19:31:45.357Z,99.90
2019-03-08T19:36:02.073Z,99.90
2019-03-08T19:40:02.319Z,99.90
2019-03-08T19:44:02.536Z,99.90
2019-03-08T19:48:11.677Z,99.90
2019-03-08T19:52:15.320Z,99.90
2019-03-08T19:56:15.882Z,99.90
2019-03-08T20:00:27.735Z,99.90
2019-03-08T20:04:36.970Z,99.90
2019-03-08T20:08:44.820Z,99.90
2019-03-08T20:12:45.268Z,99.90
2019-03-08T20:16:48.066Z,99.90
2019-03-08T20:25:10.081Z,99.90
2019-03-08T20:29:16.440Z,99.90
2019-03-08T20:33:35.182Z,99.90
2019-03-08T20:37:52.072Z,99.90
2019-03-08T20:41:56.963Z,99.90
2019-03-08T20:46:06.136Z,99.90
2019-03-08T20:50:07.722Z,99.90
2019-03-08T20:54:09.985Z,99.90
2019-03-08T20:58:08.709Z,99.90
2019-03-08T21:02:07.784Z,99.90
2019-03-08T21:06:11.982Z,99.90
2019-03-08T21:10:11.054Z,99.90
2019-03-08T21:14:09.643Z,99.90
2019-03-08T21:18:08.702Z,99.90
2019-03-08T21:22:07.273Z,99.90
2019-03-08T21:26:07.807Z,99.90
2019-03-08T21:30:15.080Z,99.90
2019-03-08T21:34:15.598Z,99.90
2019-03-08T21:38:14.190Z,99.90
2019-03-08T21:42:12.841Z,99.90
2019-03-08T21:46:11.440Z,99.90
2019-03-08T21:50:16.963Z,99.90
2019-03-08T21:54:15.561Z,99.90
2019-03-08T21:58:14.155Z,99.90
2019-03-08T22:02:12.721Z,99.90
2019-03-08T22:06:11.372Z,99.90
2019-03-08T22:10:14.172Z,99.90
2019-03-08T22:14:14.433Z,99.90
2019-03-08T22:18:13.430Z,99.90
2019-03-08T22:22:12.088Z,99.90
2019-03-08T22:26:12.349Z,99.90
2019-03-08T22:30:20.043Z,99.90
2019-03-08T22:34:18.649Z,99.90
2019-03-08T22:38:17.642Z,99.90
2019-03-08T22:42:16.206Z,99.90
2019-03-08T22:46:14.982Z,99.90
2019-03-08T22:50:14.999Z,99.90
2019-03-08T22:54:13.686Z,99.90
2019-03-08T22:58:34.523Z,99.90
2019-03-08T23:02:33.067Z,99.90
2019-03-08T23:06:31.742Z,99.90
2019-03-08T23:10:30.346Z,99.90
2019-03-08T23:14:29.216Z,99.90
2019-03-08T23:18:27.795Z,99.90
2019-03-08T23:22:28.199Z,99.90
2019-03-08T23:26:27.841Z,99.90
2019-03-08T23:30:27.414Z,99.90
2019-03-08T23:34:25.979Z,99.90
2019-03-08T23:38:26.656Z,99.90
2019-03-08T23:42:25.186Z,99.90
2019-03-08T23:46:24.336Z,99.90
2019-03-08T23:50:39.912Z,99.90
2019-03-08T23:54:38.455Z,99.90
2019-03-08T23:58:41.738Z,99.90
